METAR Data
IDs: Format: Raw Decoded Include TAF

Data at: 2317 UTC 29 May 2020

METAR for:KGGI (Grinnell Rgnl, IA, US)
Text:KGGI 292315Z AUTO 32011G18KT 10SM CLR 21/08 A3014 RMK AO2 T02060076
Temperature: 20.6°C ( 69°F)
Dewpoint: 7.6°C ( 46°F) [RH = 43%]
Pressure (altimeter):30.14 inches Hg (1020.7 mb)
Winds:from the NW (320 degrees) at 13 MPH (11 knots; 5.7 m/s) gusting to 21 MPH (18 knots; 9.3 m/s)
Visibility:10 or more sm (16+ km)
Ceiling:at least 12,000 feet AGL
Clouds:sky clear below 12,000 feet AGL
QC Flag:automated observation with no human augmentation